KITH/ITH METAR and TAF weather

Enter ICAO airport designator
Station Type Date Time Source
KITH METAR 2018/12/18 18:56 UTC NOAA

KITH 181856Z 33009KT 9SM -SN OVC022 M06/M09 A3013 RMK AO2 SLP220 P0000 T10561094


Station Type Date Time Source
KITH Decoded METAR 2018/12/18 18:56 UTC NOAA

Ithaca, Ithaca Tompkins Regional Airport, NY, United States (KITH) 42-29-27N 076-27-30W
Dec 18, 2018 - 01:56 PM EST / 2018.12.18 1856 UTC
Wind: from the NNW (330 degrees) at 10 MPH (9 KT):0
Visibility: 9 mile(s):0
Sky conditions: overcast
Weather: light snow
Precipitation last hour: A trace
Temperature: 21.9 F (-5.6 C)
Windchill: 10 F (-12 C):1
Dew Point: 15.1 F (-9.4 C)
Relative Humidity: 74%
Pressure (altimeter): 30.13 in. Hg (1020 hPa)
ob: KITH 181856Z 33009KT 9SM -SN OVC022 M06/M09 A3013 RMK AO2 SLP220 P0000 T10561094
cycle: 19

Station Type Date Time Source
KITH TAF 2018/12/18 18:42 UTC NOAA

TAF KITH 181739Z 1818/1918 32010G18KT P6SM BKN025
FM182200 32005KT P6SM SCT025
FM190300 VRB03KT P6SM SCT250
FM191500 17008KT P6SM SCT250


Example: see airport list